Time;durP1;ratioP1;P1;durP2;ratioP2;P2;SDS_P1;SDS_P2;PMS_P1;PMS_P2;Temp;Humidity;BMP_temperature;BMP_pressure;BME280_temperature;BME280_humidity;BME280_pressure;Samples;Min_cycle;Max_cycle;Signal;HPM_P1;HPM_P2
2023/03/29 00:01:59;;;;;;;10.00;9.80;;;20.00;49.40;;;;;;5033352;28;20874;-49
2023/03/29 00:04:27;;;;;;;10.20;9.90;;;20.00;49.50;;;;;;5033134;28;20477;-49
2023/03/29 00:06:55;;;;;;;10.40;10.20;;;20.00;49.50;;;;;;5032255;28;20556;-51
2023/03/29 00:09:25;;;;;;;10.90;10.60;;;19.90;49.50;;;;;;5032730;28;20482;-49
2023/03/29 00:11:52;;;;;;;11.37;10.90;;;19.90;49.50;;;;;;5033112;28;20818;-49
2023/03/29 00:14:19;;;;;;;10.30;10.07;;;19.90;49.50;;;;;;5033198;28;20559;-50
2023/03/29 00:16:46;;;;;;;11.27;10.97;;;19.90;49.60;;;;;;5032953;28;20568;-49
2023/03/29 00:19:13;;;;;;;10.40;10.20;;;19.90;49.60;;;;;;5032773;28;20564;-50
2023/03/29 00:21:41;;;;;;;10.00;9.80;;;19.90;49.60;;;;;;5032154;28;20511;-49
2023/03/29 00:24:08;;;;;;;10.60;10.20;;;19.90;49.60;;;;;;5032406;28;20473;-49
2023/03/29 00:26:35;;;;;;;10.90;10.70;;;19.90;49.60;;;;;;5032679;28;20488;-49
2023/03/29 00:29:02;;;;;;;10.40;10.20;;;19.80;49.60;;;;;;5033020;28;20480;-49
2023/03/29 00:31:29;;;;;;;10.63;10.33;;;19.90;49.70;;;;;;5032954;28;20699;-49
2023/03/29 00:33:55;;;;;;;11.50;11.20;;;19.90;49.70;;;;;;5032832;28;20957;-50
2023/03/29 00:36:23;;;;;;;10.60;10.40;;;19.80;49.60;;;;;;5032668;28;20484;-50
2023/03/29 00:38:51;;;;;;;10.60;10.30;;;19.80;49.60;;;;;;5032405;28;21040;-49
2023/03/29 00:41:18;;;;;;;10.77;10.47;;;19.80;49.60;;;;;;5032467;28;20533;-49
2023/03/29 00:43:56;;;;;;;10.60;10.40;;;19.80;49.60;;;;;;5033064;28;20445;-50
2023/03/29 00:46:24;;;;;;;10.60;10.30;;;19.80;49.50;;;;;;5033056;28;20544;-51
2023/03/29 00:48:52;;;;;;;10.23;10.03;;;19.80;49.50;;;;;;5033097;28;20448;-51
2023/03/29 00:51:22;;;;;;;10.77;10.57;;;19.80;49.50;;;;;;5032915;28;20449;-53
2023/03/29 00:53:53;;;;;;;10.80;10.60;;;19.80;49.50;;;;;;5032857;28;20476;-55
2023/03/29 00:56:23;;;;;;;10.80;10.50;;;19.90;49.50;;;;;;5032788;28;21036;-49
2023/03/29 00:58:54;;;;;;;10.50;10.20;;;19.90;49.50;;;;;;5032640;28;20814;-52
2023/03/29 01:01:29;;;;;;;11.00;10.70;;;19.90;49.50;;;;;;5032672;28;20477;-49
2023/03/29 01:04:02;;;;;;;10.73;10.53;;;19.90;49.50;;;;;;5032437;28;20448;-53
2023/03/29 01:06:34;;;;;;;9.70;9.50;;;19.90;49.50;;;;;;5032312;28;20491;-49
2023/03/29 01:09:06;;;;;;;9.60;9.40;;;19.90;49.50;;;;;;5031668;28;20543;-49
2023/03/29 01:11:38;;;;;;;10.00;9.70;;;19.90;49.60;;;;;;5032088;28;20484;-50
2023/03/29 01:14:07;;;;;;;10.60;10.30;;;19.90;49.60;;;;;;5032132;28;20445;-52
2023/03/29 01:16:37;;;;;;;10.07;9.77;;;19.90;49.60;;;;;;5032030;28;21049;-52
2023/03/29 01:19:06;;;;;;;10.00;9.80;;;19.90;49.60;;;;;;5031315;28;20520;-51
2023/03/29 01:21:36;;;;;;;10.53;10.27;;;19.90;49.60;;;;;;5031627;28;20485;-51
2023/03/29 01:24:32;;;;;;;10.20;10.00;;;19.90;49.60;;;;;;5031547;28;20541;-49
2023/03/29 01:27:06;;;;;;;10.20;9.90;;;19.90;49.60;;;;;;5031741;28;20493;-49
2023/03/29 01:29:39;;;;;;;9.83;9.63;;;19.90;49.60;;;;;;5031453;28;20488;-49
2023/03/29 01:32:10;;;;;;;10.00;9.70;;;19.90;49.70;;;;;;5031866;28;20477;-49
2023/03/29 01:34:42;;;;;;;10.93;10.57;;;19.90;49.70;;;;;;5031796;28;20843;-49
2023/03/29 01:37:14;;;;;;;10.33;9.93;;;19.90;49.60;;;;;;5031459;28;20571;-49
2023/03/29 01:39:41;;;;;;;10.70;10.40;;;19.80;49.60;;;;;;5031356;28;20460;-49
2023/03/29 01:42:21;;;;;;;10.60;10.40;;;19.80;49.60;;;;;;5031785;28;20523;-49
2023/03/29 01:44:55;;;;;;;9.90;9.70;;;19.80;49.60;;;;;;5031569;28;20441;-48
2023/03/29 01:47:30;;;;;;;10.63;10.43;;;19.80;49.60;;;;;;5031341;28;20441;-53
2023/03/29 01:50:05;;;;;;;10.60;10.40;;;19.90;49.80;;;;;;5011862;28;20480;-49
2023/03/29 01:52:36;;;;;;;10.97;10.67;;;19.90;49.70;;;;;;5011873;28;20445;-49
2023/03/29 01:55:09;;;;;;;10.07;9.87;;;19.90;49.70;;;;;;5011880;28;20528;-49
2023/03/29 01:57:38;;;;;;;10.10;9.90;;;19.80;49.60;;;;;;5013159;28;20524;-49
2023/03/29 02:00:11;;;;;;;11.77;11.37;;;19.80;49.70;;;;;;5031441;28;20507;-50
2023/03/29 02:02:42;;;;;;;11.17;10.87;;;19.80;49.60;;;;;;5031478;28;20450;-49
2023/03/29 02:05:18;;;;;;;11.00;10.70;;;19.80;49.70;;;;;;5031330;28;20504;-50
2023/03/29 02:07:48;;;;;;;10.67;10.37;;;19.80;49.70;;;;;;5032394;28;20486;-52
2023/03/29 02:10:16;;;;;;;10.30;10.10;;;19.80;49.70;;;;;;5032725;28;20532;-49
2023/03/29 02:12:43;;;;;;;10.77;10.47;;;19.80;49.70;;;;;;5033215;28;20818;-49
2023/03/29 02:15:14;;;;;;;10.90;10.70;;;19.80;50.20;;;;;;5033302;28;20508;-50
2023/03/29 02:17:42;;;;;;;10.70;10.50;;;19.80;49.70;;;;;;5032745;28;20552;-50
2023/03/29 02:20:13;;;;;;;11.33;11.13;;;19.80;49.70;;;;;;5033084;28;20970;-50
2023/03/29 02:22:47;;;;;;;11.20;10.87;;;19.70;49.60;;;;;;5033417;28;20449;-50
2023/03/29 02:25:15;;;;;;;10.50;10.30;;;19.70;49.60;;;;;;5032729;28;20478;-50
2023/03/29 02:27:42;;;;;;;11.63;11.23;;;19.70;49.60;;;;;;5032251;28;20816;-50
2023/03/29 02:30:11;;;;;;;10.30;10.10;;;19.70;49.60;;;;;;5032967;28;20479;-49
2023/03/29 02:32:47;;;;;;;10.57;10.27;;;19.70;49.60;;;;;;5037279;28;20927;-49
2023/03/29 02:35:20;;;;;;;11.10;10.83;;;19.70;49.60;;;;;;5036813;28;20465;-49
2023/03/29 02:37:51;;;;;;;11.93;11.63;;;19.70;49.70;;;;;;5036802;28;20515;-50
2023/03/29 02:40:19;;;;;;;11.23;11.03;;;19.70;49.70;;;;;;5036612;28;20503;-50
2023/03/29 02:42:48;;;;;;;11.30;11.00;;;19.70;49.70;;;;;;5037051;28;20870;-51
2023/03/29 02:45:18;;;;;;;11.00;10.70;;;19.70;49.70;;;;;;5036432;28;20460;-49
2023/03/29 02:47:51;;;;;;;11.20;10.90;;;19.70;49.70;;;;;;5036406;28;20527;-50
2023/03/29 02:50:18;;;;;;;11.23;11.03;;;19.70;49.70;;;;;;5036652;28;20445;-50
2023/03/29 02:52:53;;;;;;;11.80;11.50;;;19.70;49.70;;;;;;5036196;28;20543;-50
2023/03/29 02:55:23;;;;;;;10.30;10.10;;;19.70;49.70;;;;;;5036561;28;20495;-51
2023/03/29 02:57:50;;;;;;;10.13;9.93;;;19.70;49.70;;;;;;5036008;28;20537;-51
2023/03/29 03:00:18;;;;;;;12.07;11.57;;;19.70;49.80;;;;;;5036350;28;20524;-50
2023/03/29 03:02:47;;;;;;;10.60;10.40;;;19.70;49.70;;;;;;5036129;28;20445;-50
2023/03/29 03:05:14;;;;;;;10.23;10.03;;;19.70;49.80;;;;;;5035877;28;20495;-50
2023/03/29 03:07:41;;;;;;;10.30;10.10;;;19.70;49.80;;;;;;5035658;28;20472;-52
2023/03/29 03:10:09;;;;;;;10.03;9.83;;;19.70;49.80;;;;;;5036151;28;20449;-51
2023/03/29 03:12:37;;;;;;;9.80;9.60;;;19.70;49.80;;;;;;5036097;28;20472;-50
2023/03/29 03:15:05;;;;;;;10.10;9.90;;;19.70;49.80;;;;;;5035859;28;20472;-50
2023/03/29 03:17:38;;;;;;;10.20;10.00;;;19.70;49.80;;;;;;5036065;28;20548;-50
2023/03/29 03:20:11;;;;;;;10.10;9.90;;;19.70;49.80;;;;;;5036046;28;20531;-49
2023/03/29 03:22:39;;;;;;;10.27;10.00;;;19.70;49.80;;;;;;5035657;28;20459;-50
2023/03/29 03:25:08;;;;;;;10.40;10.10;;;19.70;49.80;;;;;;5035610;28;20500;-51
2023/03/29 03:27:35;;;;;;;10.73;10.50;;;19.70;49.80;;;;;;5035720;28;20456;-51
2023/03/29 03:30:04;;;;;;;10.13;9.83;;;19.70;49.90;;;;;;5035830;28;20472;-51
2023/03/29 03:32:31;;;;;;;10.40;10.20;;;19.70;49.80;;;;;;5035449;28;20456;-52
2023/03/29 03:34:58;;;;;;;9.87;9.67;;;19.70;49.80;;;;;;5035420;28;20449;-49
2023/03/29 03:37:27;;;;;;;9.83;9.63;;;19.70;49.80;;;;;;5034859;28;20481;-50
2023/03/29 03:39:54;;;;;;;10.73;10.40;;;19.70;49.90;;;;;;5034833;28;20449;-51
2023/03/29 03:42:21;;;;;;;10.00;9.70;;;19.70;49.80;;;;;;5035118;28;20499;-50
2023/03/29 03:44:48;;;;;;;10.50;10.20;;;19.70;49.80;;;;;;5034929;28;20480;-51
2023/03/29 03:47:16;;;;;;;10.73;10.43;;;19.70;49.80;;;;;;5035098;28;20529;-50
2023/03/29 03:49:42;;;;;;;10.57;10.27;;;19.70;49.80;;;;;;5034742;28;20535;-51
2023/03/29 03:52:09;;;;;;;9.90;9.70;;;19.70;49.80;;;;;;5034941;28;20485;-51
2023/03/29 03:54:37;;;;;;;9.90;9.70;;;19.70;49.80;;;;;;5034957;28;20540;-51
2023/03/29 03:57:05;;;;;;;9.67;9.47;;;19.70;49.80;;;;;;5034153;28;20563;-50
2023/03/29 03:59:31;;;;;;;9.43;9.23;;;19.60;49.80;;;;;;5034598;28;20487;-52
2023/03/29 04:01:59;;;;;;;9.40;9.20;;;19.60;49.80;;;;;;5034602;28;20476;-50
2023/03/29 04:04:26;;;;;;;9.60;9.40;;;19.70;49.90;;;;;;5034230;28;20853;-50
2023/03/29 04:06:52;;;;;;;10.33;10.13;;;19.60;49.80;;;;;;5033883;28;20560;-52
2023/03/29 04:09:21;;;;;;;10.60;10.30;;;19.60;49.80;;;;;;5034025;28;20481;-50
2023/03/29 04:11:51;;;;;;;10.67;10.27;;;19.60;49.80;;;;;;5034166;28;20449;-50
2023/03/29 04:14:19;;;;;;;10.13;9.93;;;19.60;49.80;;;;;;5034245;28;20486;-51
2023/03/29 04:16:46;;;;;;;11.20;10.90;;;19.60;49.80;;;;;;5034054;28;20488;-50
2023/03/29 04:19:13;;;;;;;10.30;10.00;;;19.60;49.80;;;;;;5033573;28;20467;-50
2023/03/29 04:21:41;;;;;;;11.03;10.73;;;19.60;49.80;;;;;;5033961;28;20451;-53
2023/03/29 04:24:08;;;;;;;10.33;10.07;;;19.60;49.80;;;;;;5033834;28;20905;-50
2023/03/29 04:26:35;;;;;;;10.20;10.00;;;19.60;49.80;;;;;;5034095;28;20520;-51
2023/03/29 04:29:04;;;;;;;10.00;9.80;;;19.60;49.80;;;;;;5034150;28;20488;-50
2023/03/29 04:31:32;;;;;;;10.73;10.43;;;19.60;49.90;;;;;;5033443;28;20449;-51
2023/03/29 04:33:59;;;;;;;10.57;10.37;;;19.60;49.90;;;;;;5033375;28;20453;-50
2023/03/29 04:36:26;;;;;;;11.00;10.80;;;19.50;49.80;;;;;;5033239;28;20500;-50
2023/03/29 04:38:53;;;;;;;11.00;10.70;;;19.50;49.80;;;;;;5033259;28;20473;-51
2023/03/29 04:41:19;;;;;;;10.97;10.77;;;19.50;49.90;;;;;;5033269;28;20480;-52
2023/03/29 04:43:47;;;;;;;10.30;10.03;;;19.50;49.80;;;;;;5033767;28;20445;-50
2023/03/29 04:46:15;;;;;;;10.83;10.53;;;19.50;49.80;;;;;;5033400;28;20894;-49
2023/03/29 04:48:42;;;;;;;10.27;9.97;;;19.50;49.80;;;;;;5033900;28;20441;-52
2023/03/29 04:51:10;;;;;;;11.30;11.00;;;19.60;49.90;;;;;;5029455;28;20472;-51
2023/03/29 04:53:37;;;;;;;12.87;12.57;;;19.50;50.20;;;;;;5031452;28;20205;-52
2023/03/29 04:56:05;;;;;;;12.93;12.63;;;19.60;50.90;;;;;;5032223;28;20548;-55
2023/03/29 04:58:31;;;;;;;12.70;12.40;;;19.70;51.20;;;;;;5031777;28;20904;-57
2023/03/29 05:00:58;;;;;;;13.10;12.70;;;19.80;51.10;;;;;;5032230;28;20480;-57
2023/03/29 05:03:27;;;;;;;13.23;12.93;;;19.80;50.50;;;;;;5032389;28;20473;-54
2023/03/29 05:05:54;;;;;;;13.50;12.90;;;19.90;50.50;;;;;;5017048;28;20556;-56
2023/03/29 05:08:21;;;;;;;15.67;14.23;;;20.00;53.80;;;;;;5025805;28;20476;-54
2023/03/29 05:10:48;;;;;;;16.93;15.23;;;20.10;57.90;;;;;;5018400;28;20880;-54
2023/03/29 05:13:15;;;;;;;14.83;13.70;;;20.10;61.30;;;;;;5012948;28;20450;-56
2023/03/29 05:15:42;;;;;;;14.90;14.00;;;20.20;61.00;;;;;;5033098;28;20465;-55
2023/03/29 05:18:09;;;;;;;14.27;13.07;;;20.20;59.50;;;;;;5031687;28;20563;-53
2023/03/29 05:20:39;;;;;;;14.60;13.30;;;20.30;58.70;;;;;;5031575;28;20858;-53
2023/03/29 05:23:06;;;;;;;15.77;14.40;;;20.40;58.80;;;;;;5031835;28;20453;-52
2023/03/29 05:25:33;;;;;;;15.07;13.97;;;20.40;58.60;;;;;;5031453;28;20551;-53
2023/03/29 05:28:00;;;;;;;14.73;13.63;;;20.40;58.40;;;;;;5030382;28;20472;-51
2023/03/29 05:30:27;;;;;;;14.40;13.70;;;20.50;58.20;;;;;;5031157;28;20445;-54
2023/03/29 05:32:54;;;;;;;13.70;13.10;;;20.60;58.30;;;;;;5027313;28;20537;-52
2023/03/29 05:35:23;;;;;;;15.27;13.97;;;20.60;58.00;;;;;;5011943;28;20561;-52
2023/03/29 05:37:51;;;;;;;15.07;13.97;;;20.60;57.90;;;;;;5029888;28;20477;-52
2023/03/29 05:40:18;;;;;;;14.33;13.33;;;20.70;57.80;;;;;;5031685;28;20445;-51
2023/03/29 05:42:45;;;;;;;13.97;13.40;;;20.70;57.40;;;;;;5031704;28;20533;-53
2023/03/29 05:45:12;;;;;;;11.07;10.40;;;20.70;57.00;;;;;;5029663;28;20503;-54
2023/03/29 05:47:38;;;;;;;12.13;11.53;;;20.70;56.70;;;;;;5030689;28;20222;-55
2023/03/29 05:50:08;;;;;;;11.80;11.20;;;20.80;56.20;;;;;;5031242;28;20532;-52
2023/03/29 05:52:35;;;;;;;12.67;11.97;;;20.90;55.70;;;;;;5031775;28;20938;-52
2023/03/29 05:55:04;;;;;;;13.33;12.77;;;20.90;55.20;;;;;;5031561;28;20539;-57
2023/03/29 05:57:31;;;;;;;12.17;11.67;;;20.90;54.80;;;;;;5031225;28;20854;-53
2023/03/29 05:59:58;;;;;;;11.93;11.37;;;20.90;54.40;;;;;;5031396;28;20449;-51
2023/03/29 06:02:27;;;;;;;12.40;11.90;;;20.90;54.20;;;;;;5031459;28;20488;-51
2023/03/29 06:04:54;;;;;;;12.10;11.57;;;20.90;53.90;;;;;;5031191;28;20453;-52
2023/03/29 06:07:22;;;;;;;12.00;11.23;;;20.90;53.60;;;;;;5035011;28;20491;-51
2023/03/29 06:09:49;;;;;;;12.73;11.80;;;20.90;53.40;;;;;;5035413;28;20449;-51
2023/03/29 06:12:18;;;;;;;12.10;11.70;;;20.90;53.20;;;;;;5035270;28;20540;-56
2023/03/29 06:14:47;;;;;;;12.43;11.83;;;20.90;53.00;;;;;;5035242;28;20452;-53
2023/03/29 06:17:14;;;;;;;12.90;12.10;;;20.90;52.80;;;;;;5035059;28;20946;-55
2023/03/29 06:19:41;;;;;;;12.27;11.40;;;20.80;52.70;;;;;;5035123;28;20445;-53
2023/03/29 06:22:08;;;;;;;12.67;12.07;;;20.80;52.60;;;;;;5035231;28;20451;-52
2023/03/29 06:24:35;;;;;;;12.60;11.90;;;20.70;52.60;;;;;;5035267;28;20453;-51
2023/03/29 06:27:02;;;;;;;13.03;12.40;;;20.70;52.50;;;;;;5034994;28;20469;-55
2023/03/29 06:29:30;;;;;;;12.10;11.67;;;20.60;52.50;;;;;;5035046;28;20481;-55
2023/03/29 06:31:57;;;;;;;11.87;11.43;;;20.60;52.50;;;;;;5035006;28;20449;-51
2023/03/29 06:34:24;;;;;;;12.00;11.53;;;20.50;52.40;;;;;;5035008;28;20537;-52
2023/03/29 06:36:51;;;;;;;12.27;11.77;;;20.50;52.40;;;;;;5034850;28;20997;-51
2023/03/29 06:39:18;;;;;;;13.37;12.70;;;20.40;52.30;;;;;;5034736;28;20489;-56
2023/03/29 06:41:45;;;;;;;11.87;11.27;;;20.40;52.30;;;;;;5034841;28;20536;-51
2023/03/29 06:44:12;;;;;;;11.70;11.37;;;20.40;52.30;;;;;;5034755;28;20527;-53
2023/03/29 06:46:40;;;;;;;11.23;10.93;;;20.30;52.20;;;;;;5034989;28;20543;-52
2023/03/29 06:49:07;;;;;;;11.63;11.30;;;20.30;52.20;;;;;;5034559;28;20492;-53
2023/03/29 06:51:34;;;;;;;11.70;11.20;;;20.20;52.60;;;;;;5034782;28;20523;-52
2023/03/29 06:54:03;;;;;;;11.07;10.63;;;20.20;52.20;;;;;;5034105;28;20440;-52
2023/03/29 06:56:30;;;;;;;12.60;12.30;;;20.20;52.10;;;;;;5034160;28;20559;-52
2023/03/29 06:58:58;;;;;;;13.17;12.40;;;20.20;53.80;;;;;;5034115;28;20985;-51
2023/03/29 07:01:25;;;;;;;12.57;12.17;;;20.20;53.80;;;;;;5034937;28;20457;-55
2023/03/29 07:03:55;;;;;;;13.13;12.73;;;20.20;53.50;;;;;;5034244;28;20980;-52
2023/03/29 07:06:22;;;;;;;13.20;12.50;;;20.20;53.10;;;;;;5033123;28;20483;-52
2023/03/29 07:08:51;;;;;;;11.50;11.13;;;20.30;52.90;;;;;;5034191;28;20545;-53
2023/03/29 07:11:19;;;;;;;11.70;11.03;;;20.40;52.80;;;;;;5034296;28;20974;-53
2023/03/29 07:13:47;;;;;;;12.43;11.87;;;20.40;52.60;;;;;;5034789;28;20911;-52
2023/03/29 07:16:15;;;;;;;10.93;10.63;;;20.40;52.50;;;;;;5033245;28;20470;-53
2023/03/29 07:18:43;;;;;;;12.33;11.57;;;20.50;52.50;;;;;;5033801;28;20491;-53
2023/03/29 07:21:13;;;;;;;11.70;11.30;;;20.60;52.60;;;;;;5034155;28;20523;-55
2023/03/29 07:23:41;;;;;;;11.97;11.37;;;20.60;53.40;;;;;;5034230;28;20881;-56
2023/03/29 07:26:09;;;;;;;11.47;11.07;;;20.60;53.60;;;;;;5033644;28;20540;-54
2023/03/29 07:28:38;;;;;;;12.67;12.23;;;20.60;53.60;;;;;;5033832;28;20520;-56
2023/03/29 07:31:06;;;;;;;12.57;12.07;;;20.70;54.10;;;;;;5034456;28;20445;-52
2023/03/29 07:33:33;;;;;;;13.70;12.80;;;20.80;53.80;;;;;;5034305;28;20883;-54
2023/03/29 07:36:00;;;;;;;12.97;12.43;;;20.80;53.70;;;;;;5033943;28;20523;-54
2023/03/29 07:38:29;;;;;;;13.77;12.87;;;20.80;53.70;;;;;;5033902;28;20819;-52
2023/03/29 07:40:56;;;;;;;13.50;12.90;;;20.80;53.90;;;;;;5034512;28;20488;-54
2023/03/29 07:43:23;;;;;;;12.70;12.20;;;20.80;53.80;;;;;;5033975;28;20488;-54
2023/03/29 07:45:51;;;;;;;14.43;13.90;;;20.80;53.80;;;;;;5033395;28;20472;-56
2023/03/29 07:48:18;;;;;;;12.13;11.73;;;20.90;53.80;;;;;;5033412;28;20532;-53
2023/03/29 07:50:46;;;;;;;12.83;12.43;;;20.90;53.70;;;;;;5033558;28;20514;-52
2023/03/29 07:53:12;;;;;;;12.90;12.30;;;20.90;53.50;;;;;;5034010;28;20484;-56
2023/03/29 07:55:45;;;;;;;12.63;12.23;;;20.90;53.50;;;;;;5033613;28;20552;-54
2023/03/29 07:58:13;;;;;;;12.70;11.90;;;20.90;53.40;;;;;;5032055;28;20535;-55
2023/03/29 08:00:40;;;;;;;12.73;12.20;;;21.00;53.40;;;;;;5033357;28;20445;-53
2023/03/29 08:03:08;;;;;;;12.07;11.60;;;21.00;53.40;;;;;;5033468;28;20537;-52
2023/03/29 08:05:35;;;;;;;12.80;12.40;;;21.00;53.40;;;;;;5033590;28;20472;-55
2023/03/29 08:08:02;;;;;;;11.80;11.40;;;21.00;53.30;;;;;;5033054;28;20437;-59
2023/03/29 08:10:28;;;;;;;12.27;11.87;;;21.00;53.00;;;;;;5033209;28;20879;-59
2023/03/29 08:12:57;;;;;;;12.70;12.20;;;21.10;52.80;;;;;;5033097;28;20472;-57
2023/03/29 08:15:24;;;;;;;12.97;12.57;;;21.10;52.80;;;;;;5032387;28;20549;-59
2023/03/29 08:17:51;;;;;;;12.87;12.27;;;21.20;53.20;;;;;;5033361;28;20535;-57
2023/03/29 08:20:18;;;;;;;13.60;13.10;;;21.10;53.30;;;;;;5034904;28;20870;-54
2023/03/29 08:22:44;;;;;;;12.50;12.00;;;21.30;54.50;;;;;;5034165;28;20524;-55
2023/03/29 08:25:11;;;;;;;12.10;11.60;;;21.40;55.50;;;;;;5034138;28;20551;-58
2023/03/29 08:27:39;;;;;;;13.07;12.47;;;21.50;55.70;;;;;;5033663;28;20541;-58
2023/03/29 08:30:09;;;;;;;12.40;12.00;;;21.50;55.50;;;;;;5033657;28;20472;-57
2023/03/29 08:32:37;;;;;;;12.40;11.60;;;21.60;55.40;;;;;;5034194;28;20523;-58
2023/03/29 08:35:05;;;;;;;11.23;10.83;;;21.70;55.30;;;;;;5034051;28;20488;-56
2023/03/29 08:37:32;;;;;;;11.97;11.57;;;21.70;55.10;;;;;;5034378;28;20449;-58
2023/03/29 08:40:00;;;;;;;12.47;12.07;;;21.80;54.80;;;;;;5034517;28;21109;-55
2023/03/29 08:42:43;;;;;;;12.87;12.43;;;21.80;54.40;;;;;;5033576;28;20449;-53
2023/03/29 08:45:22;;;;;;;12.63;12.20;;;21.80;54.90;;;;;;5032757;28;20501;-58
2023/03/29 08:47:54;;;;;;;13.63;13.10;;;21.90;54.70;;;;;;5034103;28;20488;-58
2023/03/29 08:50:23;;;;;;;13.23;12.70;;;21.90;54.20;;;;;;5033906;28;20524;-60
2023/03/29 08:52:54;;;;;;;12.77;12.37;;;22.00;53.90;;;;;;5034257;28;20951;-53
2023/03/29 08:55:30;;;;;;;12.90;12.40;;;22.00;53.60;;;;;;5033774;28;20552;-53
2023/03/29 08:58:00;;;;;;;10.60;10.20;;;22.10;54.00;;;;;;5032833;28;20440;-58
2023/03/29 09:00:35;;;;;;;10.60;10.30;;;22.20;54.00;;;;;;5033881;28;20520;-57
2023/03/29 09:03:02;;;;;;;11.47;11.17;;;22.20;53.60;;;;;;5032911;28;20448;-59
2023/03/29 09:05:33;;;;;;;11.03;10.73;;;22.20;53.60;;;;;;5033218;28;21026;-58
2023/03/29 09:08:00;;;;;;;11.17;10.67;;;22.30;53.60;;;;;;5032759;28;20445;-57
2023/03/29 09:10:35;;;;;;;11.20;10.80;;;22.30;53.20;;;;;;5032419;28;20444;-53
2023/03/29 09:13:16;;;;;;;11.13;10.83;;;22.30;52.80;;;;;;5032807;28;20846;-56
2023/03/29 09:15:50;;;;;;;11.17;10.80;;;22.30;52.70;;;;;;5013508;28;20498;-52
2023/03/29 09:18:26;;;;;;;11.30;10.90;;;22.40;52.60;;;;;;5012740;28;20492;-54
2023/03/29 09:20:59;;;;;;;11.50;11.10;;;22.40;52.50;;;;;;5012757;28;20544;-57
2023/03/29 09:23:44;;;;;;;11.07;10.73;;;22.40;52.30;;;;;;5032383;28;20480;-53
2023/03/29 09:26:21;;;;;;;11.47;11.00;;;22.40;52.30;;;;;;5033555;28;20551;-54
2023/03/29 09:28:56;;;;;;;12.00;11.70;;;22.50;52.30;;;;;;5033365;28;20879;-53
2023/03/29 09:31:30;;;;;;;10.80;10.50;;;22.60;52.30;;;;;;5032803;28;20467;-52
2023/03/29 09:33:59;;;;;;;11.07;10.57;;;22.60;52.30;;;;;;5013441;28;20450;-53
2023/03/29 09:36:35;;;;;;;11.53;11.13;;;22.60;52.10;;;;;;5030110;28;20520;-52
2023/03/29 09:39:04;;;;;;;11.30;10.90;;;22.70;52.10;;;;;;5032683;28;20493;-55
2023/03/29 09:41:35;;;;;;;10.67;10.23;;;22.70;52.00;;;;;;5032567;28;20453;-54
2023/03/29 09:44:07;;;;;;;11.10;10.80;;;22.70;51.90;;;;;;5032612;28;20468;-51
2023/03/29 09:46:39;;;;;;;10.90;10.60;;;22.70;51.80;;;;;;5033009;28;20497;-53
2023/03/29 09:49:13;;;;;;;11.10;10.80;;;22.70;51.80;;;;;;5032230;28;20432;-53
2023/03/29 09:51:42;;;;;;;11.30;10.90;;;22.80;51.70;;;;;;5032849;28;20544;-51
2023/03/29 09:54:10;;;;;;;11.07;10.77;;;22.80;51.60;;;;;;5031861;28;20931;-52
2023/03/29 09:56:38;;;;;;;11.07;10.77;;;22.80;51.60;;;;;;5032054;28;20465;-55
2023/03/29 09:59:05;;;;;;;11.00;10.70;;;22.80;51.50;;;;;;5031263;28;20539;-55
2023/03/29 10:01:40;;;;;;;11.10;10.80;;;22.90;51.50;;;;;;5031722;28;20540;-55
2023/03/29 10:04:10;;;;;;;11.80;11.30;;;22.90;51.40;;;;;;5032061;28;20957;-53
2023/03/29 10:06:37;;;;;;;12.10;11.70;;;23.00;51.40;;;;;;5032564;28;20836;-50
2023/03/29 10:09:14;;;;;;;11.23;10.93;;;23.00;51.30;;;;;;5032228;28;20527;-55
2023/03/29 10:11:42;;;;;;;10.63;10.33;;;23.00;51.30;;;;;;5032844;28;20484;-51
2023/03/29 10:14:15;;;;;;;10.53;10.23;;;23.10;51.30;;;;;;5032657;28;20446;-55
2023/03/29 10:16:44;;;;;;;11.80;11.40;;;23.10;51.10;;;;;;5032616;28;20472;-55
2023/03/29 10:19:23;;;;;;;11.43;11.03;;;23.20;51.20;;;;;;5031845;28;20567;-51
2023/03/29 10:21:51;;;;;;;12.30;11.90;;;23.20;51.10;;;;;;5032232;28;20453;-52
2023/03/29 10:24:20;;;;;;;12.20;11.70;;;23.20;51.00;;;;;;5032261;28;20851;-54
2023/03/29 10:26:48;;;;;;;11.87;11.57;;;23.20;51.00;;;;;;5032662;28;20461;-53
2023/03/29 10:29:15;;;;;;;12.03;11.70;;;23.20;50.90;;;;;;5032615;28;20532;-59
2023/03/29 10:31:43;;;;;;;10.87;10.57;;;23.30;51.00;;;;;;5032123;28;20500;-56
2023/03/29 10:34:15;;;;;;;10.77;10.43;;;23.30;51.00;;;;;;5032973;28;20492;-56
2023/03/29 10:36:45;;;;;;;11.23;10.93;;;23.30;51.00;;;;;;5033144;28;20453;-58
2023/03/29 10:39:15;;;;;;;11.00;10.57;;;23.40;51.30;;;;;;5032145;28;20484;-54
2023/03/29 10:41:43;;;;;;;11.40;11.10;;;23.40;51.30;;;;;;5032317;28;20456;-55
2023/03/29 10:44:28;;;;;;;12.40;11.90;;;23.40;51.10;;;;;;5032035;28;20444;-58
2023/03/29 10:47:06;;;;;;;11.30;10.90;;;23.40;51.00;;;;;;5032026;28;20469;-57
2023/03/29 10:49:41;;;;;;;12.23;11.73;;;23.40;50.90;;;;;;5031861;28;20487;-60
2023/03/29 10:52:09;;;;;;;11.80;11.40;;;23.40;50.80;;;;;;5032672;28;20548;-55
2023/03/29 10:54:36;;;;;;;11.40;11.10;;;23.40;50.90;;;;;;5035315;28;20444;-58
2023/03/29 10:57:08;;;;;;;11.67;11.37;;;23.50;50.90;;;;;;5035354;28;20476;-61
2023/03/29 10:59:46;;;;;;;12.60;12.27;;;23.50;50.80;;;;;;5034494;28;20563;-58
2023/03/29 11:02:40;;;;;;;11.27;10.93;;;23.50;50.80;;;;;;5034422;28;20445;-57
2023/03/29 11:05:23;;;;;;;11.50;11.20;;;23.50;50.60;;;;;;5034714;28;20484;-59
2023/03/29 11:08:05;;;;;;;11.77;11.47;;;23.50;50.50;;;;;;5034822;28;20449;-57
2023/03/29 11:10:41;;;;;;;12.57;12.17;;;23.50;50.40;;;;;;5034645;28;20475;-52
2023/03/29 11:13:17;;;;;;;12.00;11.60;;;23.50;51.10;;;;;;5034752;28;20551;-53
2023/03/29 11:15:56;;;;;;;12.53;12.00;;;23.50;50.60;;;;;;5035689;28;20471;-55
2023/03/29 11:18:49;;;;;;;12.43;12.03;;;23.50;50.50;;;;;;5034194;28;20532;-56
2023/03/29 11:21:25;;;;;;;12.07;11.67;;;23.50;51.80;;;;;;5031579;28;20446;-61
2023/03/29 11:24:08;;;;;;;11.30;11.00;;;23.50;51.20;;;;;;5034260;28;20951;-57
2023/03/29 11:26:44;;;;;;;12.90;12.20;;;23.50;50.80;;;;;;5034449;28;20979;-50
2023/03/29 11:29:19;;;;;;;10.97;10.67;;;23.60;51.00;;;;;;5035021;28;20532;-51
2023/03/29 11:31:58;;;;;;;10.27;9.83;;;23.50;51.20;;;;;;5034263;28;20739;-54
2023/03/29 11:34:32;;;;;;;9.90;9.50;;;23.50;51.30;;;;;;5035142;28;20974;-56
2023/03/29 11:37:03;;;;;;;10.60;10.30;;;23.60;51.00;;;;;;5034690;28;20468;-53
2023/03/29 11:39:42;;;;;;;10.83;10.53;;;23.60;50.70;;;;;;5034154;28;20512;-53
2023/03/29 11:42:16;;;;;;;11.20;10.90;;;23.60;50.50;;;;;;5034864;28;20449;-53
2023/03/29 11:44:44;;;;;;;9.77;9.37;;;23.60;50.50;;;;;;5035054;28;20448;-52
2023/03/29 11:47:17;;;;;;;10.17;9.87;;;23.60;50.50;;;;;;5033715;28;20556;-57
2023/03/29 11:49:50;;;;;;;9.50;9.30;;;23.60;50.40;;;;;;5033511;28;20537;-53
2023/03/29 11:52:21;;;;;;;10.30;10.07;;;23.60;50.20;;;;;;5035564;28;21009;-56
2023/03/29 11:54:52;;;;;;;10.37;10.07;;;23.60;50.30;;;;;;5035402;28;20453;-53
2023/03/29 11:57:24;;;;;;;11.60;11.30;;;23.60;50.20;;;;;;5034816;28;20476;-55
2023/03/29 11:59:56;;;;;;;10.73;10.37;;;23.70;50.30;;;;;;5034775;28;20524;-55
2023/03/29 12:02:28;;;;;;;10.77;10.57;;;23.60;50.70;;;;;;5014865;28;20533;-56
2023/03/29 12:05:00;;;;;;;10.33;10.03;;;23.60;50.20;;;;;;5014501;28;20470;-57
2023/03/29 12:07:31;;;;;;;10.63;10.33;;;23.60;50.10;;;;;;5014642;28;20541;-56
2023/03/29 12:10:02;;;;;;;10.40;10.10;;;23.60;50.20;;;;;;5014321;28;20446;-57
2023/03/29 12:12:40;;;;;;;10.40;10.10;;;23.60;50.20;;;;;;5020950;28;20446;-58
2023/03/29 12:15:13;;;;;;;10.90;10.60;;;23.60;50.20;;;;;;5034696;28;20572;-58
2023/03/29 12:17:46;;;;;;;10.80;10.50;;;23.70;50.30;;;;;;5034764;28;20468;-58
2023/03/29 12:20:22;;;;;;;10.63;10.33;;;23.70;50.10;;;;;;5034414;28;20520;-58
2023/03/29 12:22:50;;;;;;;11.13;10.73;;;23.70;50.20;;;;;;5034901;28;20790;-58
2023/03/29 12:25:23;;;;;;;10.50;10.20;;;23.70;50.30;;;;;;5034283;28;20548;-58
2023/03/29 12:28:04;;;;;;;10.53;10.30;;;23.70;50.00;;;;;;5033931;28;20848;-58
2023/03/29 12:31:01;;;;;;;10.93;10.63;;;23.70;50.90;;;;;;5033947;28;20867;-55
2023/03/29 12:34:07;;;;;;;10.53;10.07;;;23.70;51.30;;;;;;5033770;28;20477;-56
2023/03/29 12:36:51;;;;;;;11.40;11.00;;;23.70;51.00;;;;;;4972905;28;20503;-58
2023/03/29 12:39:21;;;;;;;10.60;10.40;;;23.70;51.30;;;;;;4971959;28;20479;-52
2023/03/29 12:41:52;;;;;;;10.40;10.10;;;23.70;51.40;;;;;;5007591;28;20807;-56
2023/03/29 12:44:23;;;;;;;10.50;10.30;;;23.70;51.50;;;;;;5033884;28;20499;-55